createdAt,value
2023-03-30T00:01:19.802Z,25.67
2023-03-30T00:03:48.273Z,29.48
2023-03-30T00:06:23.606Z,28.90
2023-03-30T00:08:53.749Z,31.30
2023-03-30T00:11:23.547Z,33.90
2023-03-30T00:13:50.972Z,34.42
2023-03-30T00:16:18.952Z,34.85
2023-03-30T00:18:45.988Z,39.17
2023-03-30T00:21:13.141Z,36.60
2023-03-30T00:23:40.513Z,29.25
2023-03-30T00:26:07.909Z,33.88
2023-03-30T00:28:35.057Z,34.42
2023-03-30T00:31:02.621Z,33.40
2023-03-30T00:33:44.113Z,37.22
2023-03-30T00:36:14.089Z,38.35
2023-03-30T00:38:41.324Z,37.60
2023-03-30T00:41:09.577Z,35.15
2023-03-30T00:43:56.305Z,34.78
2023-03-30T00:46:24.450Z,32.33
2023-03-30T00:48:52.124Z,29.83
2023-03-30T00:51:19.823Z,38.15
2023-03-30T00:53:50.462Z,32.95
2023-03-30T00:56:23.254Z,29.77
2023-03-30T00:58:50.942Z,27.33
2023-03-30T01:01:25.892Z,26.08
2023-03-30T01:03:53.973Z,32.33
2023-03-30T01:06:29.968Z,25.75
2023-03-30T01:09:00.869Z,28.98
2023-03-30T01:11:28.205Z,31.17
2023-03-30T01:14:03.812Z,28.67
2023-03-30T01:16:52.558Z,32.78
2023-03-30T01:19:53.369Z,33.70
2023-03-30T01:22:35.250Z,28.33
2023-03-30T01:25:20.955Z,27.85
2023-03-30T01:28:09.184Z,29.42
2023-03-30T01:31:13.332Z,33.05
2023-03-30T01:34:12.509Z,30.70
2023-03-30T01:36:51.882Z,29.73
2023-03-30T01:39:45.833Z,27.70
2023-03-30T01:42:36.407Z,34.38
2023-03-30T01:45:11.882Z,31.65
2023-03-30T01:47:47.494Z,37.38
2023-03-30T01:50:32.882Z,33.97
2023-03-30T01:53:08.859Z,32.88
2023-03-30T01:55:41.908Z,33.22
2023-03-30T01:58:19.515Z,32.88
2023-03-30T02:00:51.409Z,33.13
2023-03-30T02:03:28.742Z,33.10
2023-03-30T02:06:04.165Z,32.97
2023-03-30T02:08:35.276Z,37.33
2023-03-30T02:11:02.793Z,41.30
2023-03-30T02:13:33.050Z,32.05
2023-03-30T02:16:12.010Z,36.05
2023-03-30T02:18:39.183Z,32.92
2023-03-30T02:21:06.548Z,30.17
2023-03-30T02:23:39.719Z,20.38
2023-03-30T02:26:08.746Z,19.63
2023-03-30T02:28:36.288Z,29.15
2023-03-30T02:31:05.477Z,45.80
2023-03-30T02:34:09.029Z,33.65
2023-03-30T02:36:36.119Z,40.65
2023-03-30T02:39:15.164Z,55.90
2023-03-30T02:42:02.658Z,46.22
2023-03-30T02:44:45.466Z,40.28
2023-03-30T02:47:17.839Z,38.75
2023-03-30T02:49:57.417Z,35.55
2023-03-30T02:52:43.234Z,32.40
2023-03-30T02:55:46.176Z,30.55
2023-03-30T02:58:41.160Z,28.85
2023-03-30T03:01:15.328Z,30.05
2023-03-30T03:03:46.248Z,22.88
2023-03-30T03:06:15.094Z,23.05
2023-03-30T03:08:47.919Z,34.03
2023-03-30T03:11:15.179Z,31.58
2023-03-30T03:13:42.826Z,25.73
2023-03-30T03:16:12.319Z,26.02
2023-03-30T03:18:40.508Z,25.35
2023-03-30T03:21:14.111Z,22.95
2023-03-30T03:23:41.692Z,28.23
2023-03-30T03:26:11.756Z,33.10
2023-03-30T03:28:38.774Z,29.02
2023-03-30T03:31:06.780Z,29.83
2023-03-30T03:33:34.273Z,31.25
2023-03-30T03:36:01.864Z,26.67
2023-03-30T03:38:29.760Z,26.25
2023-03-30T03:40:58.899Z,25.65
2023-03-30T03:43:26.232Z,24.45
2023-03-30T03:45:53.455Z,26.08
2023-03-30T03:48:23.492Z,26.17
2023-03-30T03:50:52.791Z,32.42
2023-03-30T03:53:20.916Z,27.10
2023-03-30T03:55:48.097Z,29.05
2023-03-30T03:58:16.200Z,25.95
2023-03-30T04:00:43.425Z,22.27
2023-03-30T04:03:12.502Z,25.13
2023-03-30T04:05:40.976Z,21.80
2023-03-30T04:08:12.056Z,30.88
2023-03-30T04:10:40.992Z,25.60
2023-03-30T04:13:08.062Z,27.63
2023-03-30T04:15:35.510Z,27.17
2023-03-30T04:18:03.055Z,29.65
2023-03-30T04:20:30.673Z,25.52
2023-03-30T04:22:57.799Z,31.00
2023-03-30T04:25:26.080Z,31.08
2023-03-30T04:27:53.865Z,25.30
2023-03-30T04:30:22.622Z,25.63
2023-03-30T04:33:03.365Z,23.00
2023-03-30T04:35:34.594Z,24.55
2023-03-30T04:38:02.620Z,27.55
2023-03-30T04:40:30.047Z,27.55
2023-03-30T04:43:02.439Z,29.88
2023-03-30T04:45:31.199Z,27.08
2023-03-30T04:47:58.528Z,35.33
2023-03-30T04:50:26.290Z,28.15
2023-03-30T04:52:53.432Z,21.48
2023-03-30T04:55:20.705Z,22.10
2023-03-30T04:57:47.901Z,19.08
2023-03-30T05:00:15.739Z,21.13
2023-03-30T05:02:43.021Z,22.38
2023-03-30T05:05:10.263Z,32.60
2023-03-30T05:07:37.479Z,24.80
2023-03-30T05:10:04.939Z,25.02
2023-03-30T05:12:32.195Z,30.10
2023-03-30T05:14:59.454Z,30.55
2023-03-30T05:17:26.826Z,30.30
2023-03-30T05:19:54.804Z,33.53
2023-03-30T05:22:22.110Z,56.15
2023-03-30T05:24:49.266Z,42.88
2023-03-30T05:27:16.263Z,51.25
2023-03-30T05:29:43.313Z,55.47
2023-03-30T05:32:10.483Z,46.15
2023-03-30T05:34:37.522Z,47.85
2023-03-30T05:37:04.608Z,41.15
2023-03-30T05:39:31.681Z,40.08
2023-03-30T05:41:58.874Z,52.55
2023-03-30T05:44:26.134Z,40.72
2023-03-30T05:46:53.698Z,35.17
2023-03-30T05:49:21.126Z,45.80
2023-03-30T05:51:48.275Z,40.42
2023-03-30T05:54:15.625Z,32.53
2023-03-30T05:56:42.823Z,35.00
2023-03-30T05:59:10.599Z,41.70
2023-03-30T06:01:38.563Z,27.88
2023-03-30T06:04:06.205Z,30.95
2023-03-30T06:06:33.523Z,24.77
2023-03-30T06:09:01.059Z,30.90
2023-03-30T06:11:28.536Z,27.70
2023-03-30T06:13:55.595Z,25.15
2023-03-30T06:16:22.807Z,22.65
2023-03-30T06:18:50.059Z,28.08
2023-03-30T06:21:17.447Z,22.83
2023-03-30T06:23:44.694Z,19.77
2023-03-30T06:26:11.923Z,21.20
2023-03-30T06:28:39.092Z,26.30
2023-03-30T06:31:12.427Z,21.60
2023-03-30T06:33:41.680Z,26.55
2023-03-30T06:36:13.970Z,47.85
2023-03-30T06:38:43.745Z,33.83
2023-03-30T06:41:12.875Z,26.65
2023-03-30T06:43:40.386Z,32.20
2023-03-30T06:46:08.479Z,35.00
2023-03-30T06:48:35.884Z,34.38
2023-03-30T06:51:04.635Z,26.83
2023-03-30T06:53:31.862Z,28.58
2023-03-30T06:55:59.412Z,28.73
2023-03-30T06:58:27.822Z,26.27
2023-03-30T07:00:55.898Z,19.92
2023-03-30T07:03:23.221Z,27.33
2023-03-30T07:05:52.038Z,19.02
2023-03-30T07:08:19.897Z,15.55
2023-03-30T07:10:48.496Z,24.70
2023-03-30T07:13:19.327Z,25.52
2023-03-30T07:15:46.914Z,16.00
2023-03-30T07:18:15.066Z,19.42
2023-03-30T07:20:42.725Z,25.45
2023-03-30T07:23:11.493Z,19.88
2023-03-30T07:25:39.366Z,14.85
2023-03-30T07:28:06.836Z,21.88
2023-03-30T07:30:35.057Z,14.02
2023-03-30T07:33:02.894Z,12.15
2023-03-30T07:35:30.211Z,12.00
2023-03-30T07:38:03.400Z,18.95
2023-03-30T07:40:31.395Z,10.80
2023-03-30T07:42:59.099Z,10.07
2023-03-30T07:45:26.429Z,13.93
2023-03-30T07:47:53.602Z,8.43
2023-03-30T07:50:21.754Z,5.60
2023-03-30T07:52:53.861Z,4.30
2023-03-30T07:55:21.386Z,5.97
2023-03-30T07:57:48.448Z,9.13
2023-03-30T08:00:16.236Z,10.30
2023-03-30T08:02:44.991Z,6.78
2023-03-30T08:05:12.164Z,3.53
2023-03-30T08:07:39.494Z,5.07
2023-03-30T08:10:08.340Z,8.20
2023-03-30T08:12:35.665Z,3.45
2023-03-30T08:15:03.623Z,6.55
2023-03-30T08:17:31.205Z,3.00
2023-03-30T08:19:58.310Z,2.85
2023-03-30T08:22:25.578Z,4.63
2023-03-30T08:24:52.699Z,2.97
2023-03-30T08:27:19.856Z,5.93
2023-03-30T08:29:46.980Z,4.90
2023-03-30T08:32:14.155Z,4.30
2023-03-30T08:34:41.327Z,8.25
2023-03-30T08:37:08.443Z,3.45
2023-03-30T08:39:35.451Z,4.47
2023-03-30T08:42:11.963Z,2.60
2023-03-30T08:44:44.948Z,2.42
2023-03-30T08:47:16.785Z,2.50
2023-03-30T08:49:51.738Z,3.17
2023-03-30T08:52:24.300Z,4.07
2023-03-30T08:54:52.527Z,2.53
2023-03-30T08:57:28.240Z,3.67
2023-03-30T09:00:21.275Z,4.28
2023-03-30T09:05:30.600Z,8.75
2023-03-30T09:08:17.668Z,4.60
2023-03-30T09:10:51.955Z,5.88
2023-03-30T09:13:22.992Z,5.03
2023-03-30T09:15:59.484Z,3.65
2023-03-30T09:18:35.092Z,3.15
2023-03-30T09:21:06.412Z,4.15
2023-03-30T09:23:34.614Z,5.00
2023-03-30T09:26:20.549Z,4.07
2023-03-30T09:28:53.824Z,4.55
2023-03-30T09:31:24.545Z,5.22
2023-03-30T09:34:08.512Z,2.88
2023-03-30T09:36:56.245Z,3.95
2023-03-30T09:39:27.407Z,5.47
2023-03-30T09:42:34.874Z,4.53
2023-03-30T09:45:05.789Z,3.47
2023-03-30T09:47:39.160Z,3.17
2023-03-30T09:50:09.223Z,2.25
2023-03-30T09:52:40.683Z,4.13
2023-03-30T09:55:38.216Z,2.03
2023-03-30T09:58:26.815Z,4.18
2023-03-30T10:01:14.828Z,4.57
2023-03-30T10:03:44.185Z,4.60
2023-03-30T10:06:17.271Z,4.18
2023-03-30T10:08:57.106Z,4.00
2023-03-30T10:11:38.129Z,3.47
2023-03-30T10:14:07.518Z,3.90
2023-03-30T10:16:35.353Z,3.72
2023-03-30T10:19:16.972Z,2.90
2023-03-30T10:21:47.058Z,3.17
2023-03-30T10:24:25.780Z,6.32
2023-03-30T10:26:58.950Z,2.60
2023-03-30T10:29:30.168Z,3.88
2023-03-30T10:32:08.704Z,4.05
2023-03-30T10:34:42.730Z,7.38
2023-03-30T10:37:24.828Z,4.88
2023-03-30T10:39:52.815Z,7.70
2023-03-30T10:42:25.330Z,4.88
2023-03-30T10:44:55.696Z,4.85
2023-03-30T10:47:45.741Z,7.05
2023-03-30T10:50:21.798Z,3.10
2023-03-30T10:53:19.359Z,4.28
2023-03-30T10:55:49.192Z,6.88
2023-03-30T10:58:37.311Z,4.97
2023-03-30T11:01:42.884Z,6.55
2023-03-30T11:04:57.627Z,4.13
2023-03-30T11:07:38.883Z,3.53
2023-03-30T11:10:29.498Z,3.08
2023-03-30T11:12:59.376Z,3.97
2023-03-30T11:15:31.997Z,4.28
2023-03-30T11:18:23.408Z,3.22
2023-03-30T11:21:13.124Z,4.40
2023-03-30T11:23:53.208Z,5.28
2023-03-30T11:26:43.245Z,5.95
2023-03-30T11:29:15.977Z,5.03
2023-03-30T11:31:54.222Z,7.05
2023-03-30T11:34:38.833Z,3.78
2023-03-30T11:37:20.898Z,3.05
2023-03-30T11:40:20.430Z,5.60
2023-03-30T11:42:48.896Z,7.00
2023-03-30T11:45:46.605Z,3.97
2023-03-30T11:48:38.553Z,2.97
2023-03-30T11:51:20.633Z,6.45
2023-03-30T11:54:25.266Z,3.13
2023-03-30T11:57:24.853Z,4.50
2023-03-30T12:00:09.762Z,4.05
2023-03-30T12:03:05.645Z,6.10
2023-03-30T12:05:38.778Z,6.40
2023-03-30T12:08:36.712Z,5.30
2023-03-30T12:11:30.352Z,5.18
2023-03-30T12:13:58.364Z,4.20
2023-03-30T12:16:36.806Z,6.57
2023-03-30T12:19:09.947Z,4.82
2023-03-30T12:21:59.789Z,8.15
2023-03-30T12:24:42.338Z,5.85
2023-03-30T12:27:11.937Z,6.18
2023-03-30T12:32:22.858Z,3.88
2023-03-30T12:34:50.034Z,7.30
2023-03-30T12:37:27.048Z,6.05
2023-03-30T12:39:58.308Z,5.30
2023-03-30T12:42:28.074Z,5.30
2023-03-30T12:45:23.567Z,7.72
2023-03-30T12:48:14.557Z,7.18
2023-03-30T12:50:50.227Z,8.88
2023-03-30T12:53:26.152Z,6.20
2023-03-30T12:56:09.265Z,4.78
2023-03-30T12:58:45.333Z,3.67
2023-03-30T13:01:28.108Z,2.75
2023-03-30T13:04:16.285Z,5.80
2023-03-30T13:07:23.279Z,6.97
2023-03-30T13:10:04.031Z,4.32
2023-03-30T13:12:32.782Z,4.20
2023-03-30T13:15:31.557Z,4.35
2023-03-30T13:18:02.323Z,4.15
2023-03-30T13:20:55.896Z,4.60
2023-03-30T13:23:23.054Z,7.75
2023-03-30T13:26:28.195Z,6.13
2023-03-30T13:29:11.743Z,6.97
2023-03-30T13:31:59.608Z,5.55
2023-03-30T13:34:46.707Z,3.25
2023-03-30T13:37:39.550Z,5.80
2023-03-30T13:40:35.536Z,2.25
2023-03-30T13:43:15.300Z,5.03
2023-03-30T13:45:53.807Z,11.52
2023-03-30T13:48:38.560Z,4.95
2023-03-30T13:51:06.305Z,8.10
2023-03-30T13:53:42.567Z,7.95
2023-03-30T13:56:11.427Z,6.75
2023-03-30T13:58:41.229Z,3.15
2023-03-30T14:01:13.908Z,5.50
2023-03-30T14:03:43.837Z,5.55
2023-03-30T14:06:17.816Z,5.18
2023-03-30T14:08:48.167Z,4.63
2023-03-30T14:11:23.160Z,6.35
2023-03-30T14:13:52.607Z,3.80
2023-03-30T14:16:26.905Z,4.72
2023-03-30T14:19:08.366Z,4.65
2023-03-30T14:21:37.937Z,5.82
2023-03-30T14:24:05.543Z,5.13
2023-03-30T14:26:32.786Z,9.88
2023-03-30T14:29:06.314Z,4.72
2023-03-30T14:31:42.159Z,6.50
2023-03-30T14:34:31.526Z,6.57
2023-03-30T14:37:05.433Z,6.18
2023-03-30T14:39:39.280Z,6.25
2023-03-30T14:42:36.142Z,4.57
2023-03-30T14:45:03.628Z,9.60
2023-03-30T14:47:30.807Z,6.80
2023-03-30T14:50:04.881Z,19.92
2023-03-30T14:52:38.098Z,5.57
2023-03-30T14:55:09.918Z,7.53
2023-03-30T14:57:42.054Z,9.98
2023-03-30T15:00:18.608Z,9.35
2023-03-30T15:02:50.777Z,7.05
2023-03-30T15:05:20.239Z,8.80
2023-03-30T15:07:50.143Z,2.78
2023-03-30T15:10:35.582Z,5.57
2023-03-30T15:13:04.580Z,9.50
2023-03-30T15:15:32.962Z,7.50
2023-03-30T15:18:00.870Z,4.60
2023-03-30T15:20:31.545Z,6.05
2023-03-30T15:23:00.168Z,5.05
2023-03-30T15:25:35.492Z,5.97
2023-03-30T15:28:09.553Z,7.88
2023-03-30T15:30:40.448Z,9.13
2023-03-30T15:33:36.172Z,13.25
2023-03-30T15:36:18.400Z,5.80
2023-03-30T15:39:01.199Z,5.35
2023-03-30T15:44:22.139Z,6.82
2023-03-30T15:46:51.267Z,8.80
2023-03-30T15:49:20.918Z,10.25
2023-03-30T15:51:53.018Z,8.32
2023-03-30T15:54:39.633Z,6.20
2023-03-30T15:57:21.262Z,8.60
2023-03-30T16:00:09.620Z,6.45
2023-03-30T16:02:41.688Z,4.70
2023-03-30T16:05:20.989Z,5.13
2023-03-30T16:07:48.824Z,4.68
2023-03-30T16:10:27.637Z,11.85
2023-03-30T16:12:56.765Z,9.27
2023-03-30T16:15:26.732Z,8.05
2023-03-30T16:17:54.034Z,6.78
2023-03-30T16:20:23.965Z,10.50
2023-03-30T16:22:51.534Z,5.32
2023-03-30T16:25:23.282Z,8.40
2023-03-30T16:27:55.830Z,5.25
2023-03-30T16:30:38.888Z,3.88
2023-03-30T16:33:06.386Z,5.18
2023-03-30T16:35:33.461Z,8.30
2023-03-30T16:38:00.762Z,4.43
2023-03-30T16:40:42.297Z,8.18
2023-03-30T16:43:10.548Z,7.00
2023-03-30T16:45:37.907Z,14.88
2023-03-30T16:48:05.518Z,11.77
2023-03-30T16:50:39.833Z,8.82
2023-03-30T16:53:09.048Z,5.22
2023-03-30T16:55:37.817Z,7.05
2023-03-30T16:58:07.151Z,7.97
2023-03-30T17:01:03.804Z,5.40
2023-03-30T17:03:32.095Z,6.65
2023-03-30T17:05:59.422Z,6.15
2023-03-30T17:08:29.812Z,8.63
2023-03-30T17:11:05.223Z,9.50
2023-03-30T17:13:33.128Z,6.80
2023-03-30T17:16:03.101Z,14.02
2023-03-30T17:18:31.961Z,7.80
2023-03-30T17:21:01.190Z,7.05
2023-03-30T17:23:32.204Z,6.53
2023-03-30T17:26:01.126Z,4.72
2023-03-30T17:28:29.473Z,5.90
2023-03-30T17:30:59.332Z,5.88
2023-03-30T17:33:26.666Z,6.53
2023-03-30T17:35:57.562Z,6.10
2023-03-30T17:38:25.477Z,7.03
2023-03-30T17:40:52.779Z,5.40
2023-03-30T17:43:19.923Z,8.27
2023-03-30T17:45:47.169Z,6.65
2023-03-30T17:48:17.582Z,8.60
2023-03-30T17:50:47.333Z,6.00
2023-03-30T17:53:17.157Z,5.65
2023-03-30T17:55:46.126Z,5.05
2023-03-30T17:58:19.392Z,6.93
2023-03-30T18:00:47.681Z,3.53
2023-03-30T18:03:16.355Z,5.78
2023-03-30T18:05:47.838Z,7.90
2023-03-30T18:08:17.910Z,5.18
2023-03-30T18:10:50.000Z,4.95
2023-03-30T18:13:17.511Z,7.97
2023-03-30T18:15:48.910Z,5.82
2023-03-30T18:18:23.042Z,10.45
2023-03-30T18:20:55.210Z,5.32
2023-03-30T18:23:22.862Z,7.65
2023-03-30T18:25:50.543Z,12.70
2023-03-30T18:28:19.444Z,8.05
2023-03-30T18:30:46.742Z,6.78
2023-03-30T18:33:16.261Z,25.38
2023-03-30T18:35:49.613Z,12.40
2023-03-30T18:38:20.156Z,36.05
2023-03-30T18:40:58.458Z,21.30
2023-03-30T18:43:26.780Z,17.30
2023-03-30T18:46:00.775Z,6.13
2023-03-30T18:48:29.192Z,13.80
2023-03-30T18:50:57.332Z,16.58
2023-03-30T18:53:29.019Z,6.88
2023-03-30T18:55:58.812Z,16.30
2023-03-30T18:58:28.321Z,11.88
2023-03-30T19:00:55.932Z,18.42
2023-03-30T19:03:25.216Z,9.63
2023-03-30T19:05:52.838Z,6.55
2023-03-30T19:08:25.009Z,6.63
2023-03-30T19:10:57.777Z,9.52
2023-03-30T19:13:26.652Z,6.03
2023-03-30T19:15:54.735Z,6.05
2023-03-30T19:18:22.260Z,15.50
2023-03-30T19:20:51.485Z,8.55
2023-03-30T19:23:19.639Z,8.48
2023-03-30T19:25:46.887Z,13.52
2023-03-30T19:28:15.357Z,6.30
2023-03-30T19:30:43.038Z,6.57
2023-03-30T19:33:15.347Z,7.93
2023-03-30T19:35:44.685Z,9.93
2023-03-30T19:38:12.305Z,9.35
2023-03-30T19:40:40.180Z,5.18
2023-03-30T19:43:08.555Z,7.90
2023-03-30T19:45:35.766Z,6.72
2023-03-30T19:48:02.998Z,4.07
2023-03-30T19:50:30.628Z,4.45
2023-03-30T19:52:58.178Z,6.00
2023-03-30T19:55:25.814Z,5.95
2023-03-30T19:57:53.049Z,11.73
2023-03-30T20:00:20.892Z,8.90
2023-03-30T20:02:53.181Z,7.82
2023-03-30T20:05:21.902Z,6.80
2023-03-30T20:07:49.834Z,7.65
2023-03-30T20:10:20.589Z,13.75
2023-03-30T20:12:49.622Z,7.38
2023-03-30T20:15:17.483Z,7.20
2023-03-30T20:17:44.658Z,6.22
2023-03-30T20:20:16.236Z,9.70
2023-03-30T20:22:45.475Z,8.80
2023-03-30T20:25:14.234Z,13.70
2023-03-30T20:27:42.081Z,17.17
2023-03-30T20:30:09.931Z,16.45
2023-03-30T20:32:37.315Z,7.25
2023-03-30T20:35:05.632Z,7.30
2023-03-30T20:37:32.744Z,10.20
2023-03-30T20:40:09.861Z,9.63
2023-03-30T20:42:40.129Z,7.78
2023-03-30T20:45:08.630Z,7.38
2023-03-30T20:47:35.799Z,9.50
2023-03-30T20:50:03.684Z,6.55
2023-03-30T20:52:31.221Z,8.25
2023-03-30T20:54:59.869Z,4.40
2023-03-30T20:57:27.464Z,6.63
2023-03-30T20:59:54.716Z,8.07
2023-03-30T21:02:21.963Z,6.18
2023-03-30T21:04:49.792Z,5.50
2023-03-30T21:07:18.341Z,7.07
2023-03-30T21:09:46.069Z,7.30
2023-03-30T21:12:13.281Z,6.15
2023-03-30T21:14:44.906Z,6.85
2023-03-30T21:17:12.707Z,6.40
2023-03-30T21:19:39.817Z,5.75
2023-03-30T21:22:07.657Z,7.13
2023-03-30T21:24:35.006Z,5.97
2023-03-30T21:27:02.213Z,6.20
2023-03-30T21:29:29.229Z,6.32
2023-03-30T21:31:57.828Z,5.68
2023-03-30T21:34:24.895Z,10.25
2023-03-30T21:36:52.254Z,6.93
2023-03-30T21:39:19.444Z,6.30
2023-03-30T21:41:46.533Z,7.95
2023-03-30T21:44:13.694Z,6.65
2023-03-30T21:46:40.915Z,7.25
2023-03-30T21:49:08.145Z,5.20
2023-03-30T21:51:35.386Z,8.23
2023-03-30T21:54:02.567Z,7.00
2023-03-30T21:56:31.404Z,5.03
2023-03-30T21:58:59.198Z,10.82
2023-03-30T22:01:26.789Z,3.15
2023-03-30T22:03:56.397Z,4.07
2023-03-30T22:06:24.182Z,5.40
2023-03-30T22:08:51.454Z,5.35
2023-03-30T22:11:21.559Z,4.15
2023-03-30T22:13:49.102Z,4.00
2023-03-30T22:16:24.586Z,5.90
2023-03-30T22:18:52.592Z,4.65
2023-03-30T22:21:22.522Z,7.13
2023-03-30T22:23:49.750Z,5.40
2023-03-30T22:26:17.309Z,5.90
2023-03-30T22:28:44.838Z,4.57
2023-03-30T22:31:14.033Z,4.00
2023-03-30T22:33:41.614Z,4.55
2023-03-30T22:36:19.616Z,3.35
2023-03-30T22:38:47.821Z,4.95
2023-03-30T22:41:15.516Z,5.57
2023-03-30T22:43:42.616Z,2.28
2023-03-30T22:46:10.091Z,3.47
2023-03-30T22:48:37.892Z,4.90
2023-03-30T22:51:08.455Z,4.90
2023-03-30T22:53:36.425Z,7.53
2023-03-30T22:56:03.881Z,5.43
2023-03-30T22:58:31.213Z,3.42
2023-03-30T23:01:02.452Z,6.40
2023-03-30T23:03:29.790Z,5.35
2023-03-30T23:06:01.176Z,5.18
2023-03-30T23:08:32.411Z,5.13
2023-03-30T23:11:05.096Z,6.30
2023-03-30T23:13:38.193Z,6.60
2023-03-30T23:16:06.673Z,5.10
2023-03-30T23:18:35.075Z,3.45
2023-03-30T23:21:06.917Z,1.90
2023-03-30T23:23:35.988Z,8.63
2023-03-30T23:26:09.388Z,7.45
2023-03-30T23:28:42.018Z,3.70
2023-03-30T23:31:12.500Z,6.57
2023-03-30T23:33:40.580Z,6.80
2023-03-30T23:36:09.241Z,5.45
2023-03-30T23:38:37.660Z,6.40
2023-03-30T23:41:06.136Z,6.75
2023-03-30T23:43:33.211Z,4.22
2023-03-30T23:46:00.344Z,2.83
2023-03-30T23:48:27.410Z,3.83
2023-03-30T23:50:56.409Z,5.82
2023-03-30T23:53:25.135Z,5.85
2023-03-30T23:55:52.855Z,4.03
2023-03-30T23:58:19.995Z,4.65
